LEVD/VLL METAR and TAF weather

Enter ICAO airport designator
Station Type Date Time Source
LEVD METAR 2019/08/23 15:00 UTC NOAA

LEVD 231500Z 30010KT 220V360 CAVOK 31/01 Q1020


Station Type Date Time Source
LEVD Decoded METAR 2019/08/23 15:00 UTC NOAA

Station name not available
Aug 23, 2019 - 11:00 AM EDT / 2019.08.23 1500 UTC
Wind: from the WNW (300 degrees) at 12 MPH (10 KT) (direction variable):0
Visibility: greater than 7 mile(s):0
Temperature: 87 F (31 C)
Dew Point: 33 F (1 C)
Relative Humidity: 14%
Pressure (altimeter): 30.12 in. Hg (1020 hPa)
ob: LEVD 231500Z 30010KT 220V360 CAVOK 31/01 Q1020
cycle: 15

Station Type Date Time Source
LEVD TAF 2019/08/23 12:27 UTC NOAA

TAF LEVD 231100Z 2312/2412 23007KT CAVOK TX34/2316Z TN15/2406Z
BECMG 2315/2317 30007KT
BECMG 2322/2324 VRB05KT

Example: see airport list